Observation data for Andrews on 05/25/2020      Previous  Date       Current Mesonet Observations  Soil Data  Daily Summary Page  Observations in Plain Language
KANS 250500Z 14008KT 21/07 A2981 RMK A01 T02140065  RH  039%=      5-min Rain = 0
KANS 250505Z 15007KT 21/06 A2981 RMK A01 T02130064  RH  039%=      5-min Rain = 0
KANS 250510Z 15008KT 21/06 A2981 RMK A01 T02110063  RH  039%=      5-min Rain = 0
KANS 250515Z 15008G13KT 21/06 A2981 RMK A01 T02090064  RH  040%=      5-min Rain = 0
KANS 250520Z 16008KT 21/07 A298 RMK A01 T02080065  RH  040%=      5-min Rain = 0
KANS 250525Z 16007KT 21/06 A2981 RMK A01 T02060064  RH  041%=      5-min Rain = 0
KANS 250530Z 16006KT 20/06 A2981 RMK A01 T02030063  RH  041%=      5-min Rain = 0
KANS 250535Z 16006KT 20/06 A2981 RMK A01 T01990062  RH  042%=      5-min Rain = 0
KANS 250540Z 14007KT 20/06 A2982 RMK A01 T01960060  RH  042%=      5-min Rain = 0
KANS 250545Z 13006KT 20/06 A2982 RMK A01 T01950058  RH  041%=      5-min Rain = 0
KANS 250550Z 13005KT 19/06 A2982 RMK A01 T01940057  RH  042%=      5-min Rain = 0
KANS 250555Z 14006KT 19/06 A2983 RMK A01 T01900056  RH  042%=      5-min Rain = 0
KANS 250600Z 17005KT 19/06 A2982 RMK A01 T01880055  RH  043%=      5-min Rain = 0
KANS 250605Z 13005KT 19/05 A2983 RMK A01 T01850054  RH  043%=      5-min Rain = 0
KANS 250610Z 13005KT 18/05 A2983 RMK A01 T01820052  RH  043%=      5-min Rain = 0
KANS 250615Z 13007KT 18/05 A2983 RMK A01 T01820053  RH  043%=      5-min Rain = 0
KANS 250620Z 14008KT 19/06 A2983 RMK A01 T01850057  RH  044%=      5-min Rain = 0
KANS 250625Z 13009KT 18/06 A2983 RMK A01 T01840059  RH  045%=      5-min Rain = 0
KANS 250630Z 13010KT 19/06 A2983 RMK A01 T01850063  RH  046%=      5-min Rain = 0
KANS 250635Z 13011G17KT 19/07 A2983 RMK A01 T01860066  RH  047%=      5-min Rain = 0
KANS 250640Z 12012G20KT 19/08 A2983 RMK A01 T01880080  RH  051%=      5-min Rain = 0
KANS 250645Z 12012G18KT 19/09 A2983 RMK A01 T01890090  RH  054%=      5-min Rain = 0
KANS 250650Z 12013G19KT 19/09 A2983 RMK A01 T01870093  RH  056%=      5-min Rain = 0
KANS 250655Z 12012G17KT 19/10 A2983 RMK A01 T01870095  RH  057%=      5-min Rain = 0
KANS 250700Z 11011KT 19/10 A2984 RMK A01 T01860096  RH  058%=      5-min Rain = 0
KANS 250705Z 11010G16KT 19/10 A2984 RMK A01 T01850098  RH  059%=      5-min Rain = 0
KANS 250710Z 12010G18KT 18/10 A2984 RMK A01 T01840099  RH  060%=      5-min Rain = 0
KANS 250715Z 11013G18KT 18/10 A2984 RMK A01 T01840102  RH  061%=      5-min Rain = 0
KANS 250720Z 11012G19KT 18/11 A2984 RMK A01 T01830105  RH  063%=      5-min Rain = 0
KANS 250725Z 11014G19KT 18/11 A2984 RMK A01 T01810108  RH  064%=      5-min Rain = 0
KANS 250730Z 12012G18KT 18/11 A2984 RMK A01 T01790109  RH  066%=      5-min Rain = 0
KANS 250735Z 12011G16KT 18/11 A2984 RMK A01 T01770110  RH  067%=      5-min Rain = 0
KANS 250740Z 12011G16KT 18/11 A2984 RMK A01 T01760112  RH  068%=      5-min Rain = 0
KANS 250745Z 12010KT 18/11 A2984 RMK A01 T01750112  RH  069%=      5-min Rain = 0
KANS 250750Z 13009KT 17/11 A2984 RMK A01 T01740112  RH  069%=      5-min Rain = 0
KANS 250755Z 13009KT 17/11 A2984 RMK A01 T01730111  RH  070%=      5-min Rain = 0
KANS 250800Z 13011G16KT 17/11 A2984 RMK A01 T01720111  RH  070%=      5-min Rain = 0
KANS 250805Z 14008KT 17/11 A2984 RMK A01 T01710111  RH  070%=      5-min Rain = 0
KANS 250810Z 14009G15KT 17/11 A2983 RMK A01 T01690112  RH  071%=      5-min Rain = 0
KANS 250815Z 13007KT 17/11 A2983 RMK A01 T01680112  RH  072%=      5-min Rain = 0
KANS 250820Z 13008KT 17/11 A2984 RMK A01 T01670112  RH  073%=      5-min Rain = 0
KANS 250825Z 13008KT 17/11 A2984 RMK A01 T01670112  RH  073%=      5-min Rain = 0
KANS 250830Z 13009KT 17/11 A2984 RMK A01 T01660113  RH  073%=      5-min Rain = 0
KANS 250835Z 13008G13KT 17/11 A2984 RMK A01 T01650112  RH  074%=      5-min Rain = 0
KANS 250840Z 13008G13KT 16/11 A2983 RMK A01 T01640112  RH  074%=      5-min Rain = 0
KANS 250845Z 13008G15KT 16/11 A2983 RMK A01 T01630112  RH  074%=      5-min Rain = 0
KANS 250850Z 13008KT 16/11 A2983 RMK A01 T01630113  RH  074%=      5-min Rain = 0
KANS 250855Z 13007KT 16/11 A2983 RMK A01 T01620112  RH  075%=      5-min Rain = 0
KANS 250900Z 13008KT 16/11 A2983 RMK A01 T01600112  RH  076%=      5-min Rain = 0
KANS 250905Z 13007KT 16/11 A2983 RMK A01 T01600113  RH  077%=      5-min Rain = 0
KANS 250910Z 13009KT 16/11 A2983 RMK A01 T01600114  RH  077%=      5-min Rain = 0
KANS 250915Z 14009KT 16/11 A2983 RMK A01 T01590114  RH  077%=      5-min Rain = 0
KANS 250920Z 13009G14KT 16/12 A2983 RMK A01 T01580115  RH  078%=      5-min Rain = 0
KANS 250925Z 13009KT 16/12 A2983 RMK A01 T01570115  RH  079%=      5-min Rain = 0
KANS 250930Z 12009G14KT 16/12 A2983 RMK A01 T01570116  RH  079%=      5-min Rain = 0
KANS 250935Z 12010KT 16/12 A2983 RMK A01 T01570116  RH  080%=      5-min Rain = 0
KANS 250940Z 12010KT 16/12 A2983 RMK A01 T01560117  RH  081%=      5-min Rain = 0
KANS 250945Z 11009KT 16/12 A2983 RMK A01 T01550118  RH  081%=      5-min Rain = 0
KANS 250950Z 11008KT 15/12 A2984 RMK A01 T01540117  RH  082%=      5-min Rain = 0
KANS 250955Z 11008KT 15/12 A2984 RMK A01 T01530119  RH  083%=      5-min Rain = 0
KANS 251000Z 11009KT 15/12 A2984 RMK A01 T01520120  RH  084%=      5-min Rain = 0
KANS 251005Z 11009KT 15/12 A2984 RMK A01 T01530121  RH  084%=      5-min Rain = 0
KANS 251010Z 10009KT 15/12 A2983 RMK A01 T01540122  RH  084%=      5-min Rain = 0
KANS 251015Z 10008KT 16/12 A2983 RMK A01 T01550122  RH  084%=      5-min Rain = 0
KANS 251020Z 11010G15KT 16/12 A2983 RMK A01 T01550123  RH  084%=      5-min Rain = 0
KANS 251025Z 11010G16KT 16/12 A2983 RMK A01 T01560123  RH  084%=      5-min Rain = 0
KANS 251030Z 11012G18KT 16/12 A2982 RMK A01 T01570123  RH  083%=      5-min Rain = 0
KANS 251035Z 11010G15KT 16/12 A2982 RMK A01 T01580124  RH  083%=      5-min Rain = 0
KANS 251040Z 11013G18KT 16/12 A2982 RMK A01 T01580124  RH  083%=      5-min Rain = 0
KANS 251045Z 10011G16KT 16/12 A2981 RMK A01 T01570124  RH  083%=      5-min Rain = 0
KANS 251050Z 11014G20KT 16/12 A2981 RMK A01 T01570123  RH  084%=      5-min Rain = 0
KANS 251055Z 10012G17KT 16/12 A2981 RMK A01 T01560124  RH  084%=      5-min Rain = 0
KANS 251100Z 10013G18KT 16/12 A2982 RMK A01 T01570124  RH  084%=      5-min Rain = 0
KANS 251105Z 10010G18KT 16/12 A2982 RMK A01 T01560124  RH  084%=      5-min Rain = 0
KANS 251110Z 10011G17KT 16/12 A2982 RMK A01 T01570124  RH  084%=      5-min Rain = 0
KANS 251115Z 10010KT 16/12 A2983 RMK A01 T01570124  RH  084%=      5-min Rain = 0
KANS 251120Z 10009G14KT 16/12 A2983 RMK A01 T01570124  RH  084%=      5-min Rain = 0
KANS 251125Z 11011KT 16/12 A2984 RMK A01 T01570124  RH  084%=      5-min Rain = 0
KANS 251130Z 09009G15KT 16/12 A2985 RMK A01 T01570124  RH  084%=      5-min Rain = 0
KANS 251135Z 09008G14KT 16/12 A2986 RMK A01 T01570124  RH  084%=      5-min Rain = 0
KANS 251140Z 10010KT 16/12 A2985 RMK A01 T01570124  RH  084%=      5-min Rain = 0
KANS 251145Z 09008KT 16/12 A2986 RMK A01 T01570124  RH  083%=      5-min Rain = 0
KANS 251150Z 08007KT 16/12 A2986 RMK A01 T01580123  RH  083%=      5-min Rain = 0
KANS 251155Z 08007KT 16/12 A2986 RMK A01 T01580123  RH  083%=      5-min Rain = 0
KANS 251200Z 08008G13KT 16/12 A2987 RMK A01 T01580123  RH  083%=      5-min Rain = 0
KANS 251205Z 09008KT 16/12 A2986 RMK A01 T01590123  RH  082%=      5-min Rain = 0
KANS 251210Z 09006KT 16/12 A2986 RMK A01 T01590123  RH  082%=      5-min Rain = 0
KANS 251215Z 09007KT 16/12 A2987 RMK A01 T01590123  RH  082%=      5-min Rain = 0
KANS 251220Z 09006KT 16/12 A2987 RMK A01 T01590122  RH  082%=      5-min Rain = 0
KANS 251225Z 09007KT 16/12 A2987 RMK A01 T01600122  RH  081%=      5-min Rain = 0
KANS 251230Z 09007KT 16/12 A2987 RMK A01 T01610122  RH  081%=      5-min Rain = 0
KANS 251235Z 08007KT 16/12 A2987 RMK A01 T01610122  RH  081%=      5-min Rain = 0
KANS 251240Z 07008KT 16/12 A2987 RMK A01 T01610121  RH  080%=      5-min Rain = 0
KANS 251245Z 08008KT 16/12 A2987 RMK A01 T01620121  RH  080%=      5-min Rain = 0
KANS 251250Z 07006KT 16/12 A2987 RMK A01 T01630121  RH  079%=      5-min Rain = 0
KANS 251255Z 07008KT 16/12 A2987 RMK A01 T01640121  RH  079%=      5-min Rain = 0
KANS 251300Z 07008KT 17/12 A2987 RMK A01 T01660121  RH  078%=      5-min Rain = 0
KANS 251305Z 06008KT 17/12 A2987 RMK A01 T01680122  RH  077%=      5-min Rain = 0
KANS 251310Z 07008KT 17/12 A2987 RMK A01 T01700121  RH  076%=      5-min Rain = 0
KANS 251315Z 08009KT 17/12 A2988 RMK A01 T01700120  RH  075%=      5-min Rain = 0
KANS 251320Z 08008KT 17/12 A2988 RMK A01 T01710120  RH  075%=      5-min Rain = 0
KANS 251325Z 09008KT 17/12 A2988 RMK A01 T01720121  RH  075%=      5-min Rain = 0
KANS 251330Z 07007KT 17/12 A2988 RMK A01 T01710120  RH  075%=      5-min Rain = 0
KANS 251335Z 06007KT 17/12 A2988 RMK A01 T01710122  RH  076%=      5-min Rain = 0
KANS 251340Z 07008KT 18/12 A2987 RMK A01 T01790121  RH  071%=      5-min Rain = 0
KANS 251345Z 07007KT 17/12 A2988 RMK A01 T01730118  RH  073%=      5-min Rain = 0
KANS 251350Z 05009KT 17/12 A2988 RMK A01 T01720122  RH  075%=      5-min Rain = 0
KANS 251355Z 05009KT 18/12 A2989 RMK A01 T01750122  RH  074%=      5-min Rain = 0
KANS 251400Z 06009KT 18/12 A2989 RMK A01 T01830120  RH  069%=      5-min Rain = 0
KANS 251405Z 05008KT 18/12 A2989 RMK A01 T01840121  RH  069%=      5-min Rain = 0
KANS 251410Z 05008KT 18/12 A2989 RMK A01 T01780121  RH  072%=      5-min Rain = 0
KANS 251415Z 04009KT 18/12 A2989 RMK A01 T01800123  RH  072%=      5-min Rain = 0
KANS 251420Z 05009KT 19/12 A2989 RMK A01 T01860122  RH  069%=      5-min Rain = 0
KANS 251425Z 02007KT 19/12 A2989 RMK A01 T01860121  RH  068%=      5-min Rain = 0
KANS 251430Z 04008KT 19/12 A2989 RMK A01 T01920120  RH  065%=      5-min Rain = 0
KANS 251435Z 02012KT 19/12 A299 RMK A01 T01920122  RH  066%=      5-min Rain = 0
KANS 251440Z 03012KT 19/12 A299 RMK A01 T01890121  RH  067%=      5-min Rain = 0
KANS 251445Z 03012G18KT 19/12 A299 RMK A01 T01920121  RH  066%=      5-min Rain = 0
KANS 251450Z 02013KT 19/12 A299 RMK A01 T01900121  RH  066%=      5-min Rain = 0
KANS 251455Z 03013G18KT 19/12 A299 RMK A01 T01880119  RH  067%=      5-min Rain = 0
KANS 251500Z 04012KT 19/12 A2991 RMK A01 T01920119  RH  065%=      5-min Rain = 0
KANS 251505Z 04011G17KT 20/12 A2991 RMK A01 T02040119  RH  060%=      5-min Rain = 0
KANS 251510Z 04013KT 19/12 A2991 RMK A01 T01940117  RH  063%=      5-min Rain = 0
KANS 251515Z 04014G19KT 19/12 A2992 RMK A01 T01890116  RH  065%=      5-min Rain = 0
KANS 251520Z 04013G19KT 19/12 A2992 RMK A01 T01900116  RH  065%=      5-min Rain = 0
KANS 251525Z 04014G19KT 19/12 A2992 RMK A01 T01910117  RH  064%=      5-min Rain = 0
KANS 251530Z 05012G17KT 20/12 A2992 RMK A01 T01970119  RH  063%=      5-min Rain = 0
KANS 251535Z 04013G19KT 20/12 A2992 RMK A01 T02010118  RH  061%=      5-min Rain = 0
KANS 251540Z 06014G19KT 19/12 A2992 RMK A01 T01930115  RH  063%=      5-min Rain = 0
KANS 251545Z 05013G19KT 19/12 A2992 RMK A01 T01900115  RH  064%=      5-min Rain = 0
KANS 251550Z 04013G18KT 19/12 A2992 RMK A01 T01930115  RH  063%=      5-min Rain = 0
KANS 251555Z 05012G17KT 19/11 A2992 RMK A01 T01930114  RH  062%=      5-min Rain = 0
KANS 251600Z 05015G20KT 19/12 A2992 RMK A01 T01930115  RH  063%=      5-min Rain = 0
KANS 251605Z 05014KT 19/12 A2992 RMK A01 T01910115  RH  064%=      5-min Rain = 0
KANS 251610Z 06013KT 19/12 A2992 RMK A01 T01900116  RH  064%=      5-min Rain = 0
KANS 251615Z 06013G18KT 19/12 A2992 RMK A01 T01920116  RH  064%=      5-min Rain = 0
KANS 251620Z 05013G18KT 19/12 A2992 RMK A01 T01910115  RH  064%=      5-min Rain = 0
KANS 251625Z 05013G18KT 19/11 A2992 RMK A01 T01880114  RH  064%=      5-min Rain = 0
KANS 251630Z 06012G17KT 19/11 A2992 RMK A01 T01880113  RH  064%=      5-min Rain = 0
KANS 251635Z 05012G20KT 19/11 A2993 RMK A01 T01880112  RH  063%=      5-min Rain = 0
KANS 251640Z 06013G18KT 19/11 A2993 RMK A01 T01890112  RH  063%=      5-min Rain = 0
KANS 251645Z 06012G19KT 19/11 A2993 RMK A01 T01910113  RH  063%=      5-min Rain = 0
KANS 251650Z 07014G19KT 19/11 A2993 RMK A01 T01900112  RH  063%=      5-min Rain = 0
KANS 251655Z 06014G20KT 19/11 A2993 RMK A01 T01890112  RH  063%=      5-min Rain = 0
KANS 251700Z 06014G20KT 19/11 A2993 RMK A01 T01880110  RH  063%=      5-min Rain = 0
KANS 251705Z 04017G23KT 19/12 A2993 RMK A01 T01850115  RH  066%=      5-min Rain = 0
KANS 251710Z 03017G24KT 18/11 A2994 RMK A01 T01800113  RH  067%=      5-min Rain = 0
KANS 251715Z 03016G22KT 18/11 A2994 RMK A01 T01800111  RH  066%=      5-min Rain = 0
KANS 251720Z 03015G21KT 18/11 A2994 RMK A01 T01810109  RH  065%=      5-min Rain = 0
KANS 251725Z 04016KT 19/11 A2994 RMK A01 T01850109  RH  063%=      5-min Rain = 0
KANS 251730Z 05014G24KT 19/11 A2994 RMK A01 T01900109  RH  061%=      5-min Rain = 0
KANS 251735Z 05014G21KT 19/11 A2994 RMK A01 T01880107  RH  061%=      5-min Rain = 0
KANS 251740Z 05016G22KT 19/11 A2994 RMK A01 T01870106  RH  061%=      5-min Rain = 0
KANS 251745Z 04015G21KT 19/11 A2995 RMK A01 T01870107  RH  061%=      5-min Rain = 0
KANS 251750Z 04016G22KT 19/11 A2995 RMK A01 T01880106  RH  061%=      5-min Rain = 0
KANS 251755Z 04015G21KT 19/11 A2995 RMK A01 T01890107  RH  061%=      5-min Rain = 0
KANS 251800Z 05016G22KT 19/11 A2995 RMK A01 T01890108  RH  061%=      5-min Rain = 0
KANS 251805Z 04016G23KT 19/11 A2995 RMK A01 T01880107  RH  061%=      5-min Rain = 0
KANS 251810Z 04014G22KT 19/11 A2995 RMK A01 T01910107  RH  060%=      5-min Rain = 0
KANS 251815Z 03015KT 19/11 A2995 RMK A01 T01900105  RH  060%=      5-min Rain = 0
KANS 251820Z 03015KT 19/10 A2995 RMK A01 T01890104  RH  060%=      5-min Rain = 0
KANS 251825Z 02014G19KT 19/10 A2995 RMK A01 T01900104  RH  059%=      5-min Rain = 0
KANS 251830Z 03014G19KT 19/10 A2996 RMK A01 T01900103  RH  059%=      5-min Rain = 0
KANS 251835Z 02015G20KT 19/10 A2996 RMK A01 T01910102  RH  058%=      5-min Rain = 0
KANS 251840Z 03013G20KT 19/10 A2996 RMK A01 T01900102  RH  058%=      5-min Rain = 0
KANS 251845Z 03013KT 19/10 A2996 RMK A01 T01900102  RH  058%=      5-min Rain = 0
KANS 251850Z 04013G19KT 19/10 A2996 RMK A01 T01910100  RH  058%=      5-min Rain = 0
KANS 251855Z 05014G20KT 19/10 A2996 RMK A01 T01900100  RH  058%=      5-min Rain = 0
KANS 251900Z 05013G18KT 19/10 A2996 RMK A01 T01900099  RH  057%=      5-min Rain = 0
KANS 251905Z 03013KT 19/10 A2996 RMK A01 T01910099  RH  057%=      5-min Rain = 0
KANS 251910Z 03012G17KT 19/10 A2996 RMK A01 T01930098  RH  056%=      5-min Rain = 0
KANS 251915Z 03014KT 19/10 A2996 RMK A01 T01930097  RH  056%=      5-min Rain = 0
KANS 251920Z 03012KT 19/10 A2997 RMK A01 T01920098  RH  056%=      5-min Rain = 0
KANS 251925Z 04012KT 19/10 A2996 RMK A01 T01930097  RH  056%=      5-min Rain = 0
KANS 251930Z 04011G16KT 20/10 A2996 RMK A01 T01950098  RH  055%=      5-min Rain = 0
KANS 251935Z 04011G16KT 20/10 A2996 RMK A01 T01970099  RH  055%=      5-min Rain = 0
KANS 251940Z 04011G17KT 20/10 A2996 RMK A01 T01980099  RH  054%=      5-min Rain = 0
KANS 251945Z 05012KT 20/10 A2996 RMK A01 T01990099  RH  054%=      5-min Rain = 0
KANS 251950Z 04012KT 20/10 A2996 RMK A01 T02030100  RH  053%=      5-min Rain = 0
KANS 251955Z 03013KT 21/10 A2996 RMK A01 T02050100  RH  053%=      5-min Rain = 0
KANS 252000Z 02014KT 21/10 A2996 RMK A01 T02080100  RH  052%=      5-min Rain = 0
KANS 252005Z 03013G18KT 21/10 A2995 RMK A01 T02100100  RH  051%=      5-min Rain = 0
KANS 252010Z 04012KT 21/10 A2995 RMK A01 T02140102  RH  050%=      5-min Rain = 0
KANS 252015Z 04013G19KT 22/10 A2995 RMK A01 T02170102  RH  049%=      5-min Rain = 0
KANS 252020Z 05012KT 22/10 A2995 RMK A01 T02190102  RH  049%=      5-min Rain = 0
KANS 252025Z 04013G18KT 22/10 A2995 RMK A01 T02170102  RH  050%=      5-min Rain = 0
KANS 252030Z 05013G20KT 22/10 A2995 RMK A01 T02150101  RH  050%=      5-min Rain = 0
KANS 252035Z 03013KT 21/10 A2995 RMK A01 T02120100  RH  051%=      5-min Rain = 0
KANS 252040Z 04011G16KT 22/10 A2995 RMK A01 T02150100  RH  050%=      5-min Rain = 0
KANS 252045Z 04013G19KT 22/10 A2994 RMK A01 T02170101  RH  049%=      5-min Rain = 0
KANS 252050Z 03011G17KT 22/10 A2993 RMK A01 T02200101  RH  048%=      5-min Rain = 0
KANS 252055Z 05010G18KT 22/10 A2993 RMK A01 T02210102  RH  048%=      5-min Rain = 0
KANS 252100Z 05011G17KT 22/10 A2993 RMK A01 T02230102  RH  048%=      5-min Rain = 0
KANS 252105Z 04013KT 23/10 A2993 RMK A01 T02290101  RH  046%=      5-min Rain = 0
KANS 252110Z 04012G17KT 23/10 A2993 RMK A01 T02250101  RH  047%=      5-min Rain = 0
KANS 252115Z 05010G15KT 23/10 A2993 RMK A01 T02260102  RH  047%=      5-min Rain = 0
KANS 252120Z 03011G16KT 23/10 A2993 RMK A01 T02280101  RH  046%=      5-min Rain = 0
KANS 252125Z 03008KT 22/10 A2994 RMK A01 T02220101  RH  048%=      5-min Rain = 0
KANS 252130Z 03008KT 22/10 A2994 RMK A01 T02230101  RH  047%=      5-min Rain = 0
KANS 252135Z 04007KT 22/10 A2994 RMK A01 T02230101  RH  047%=      5-min Rain = 0
KANS 252140Z 03011G16KT 22/10 A2994 RMK A01 T02230100  RH  047%=      5-min Rain = 0
KANS 252145Z 04009G17KT 23/10 A2994 RMK A01 T02250102  RH  047%=      5-min Rain = 0
KANS 252150Z 02011G17KT 24/10 A2993 RMK A01 T02430103  RH  043%=      5-min Rain = 0
KANS 252155Z 03011G16KT 24/10 A2993 RMK A01 T02430102  RH  042%=      5-min Rain = 0
KANS 252200Z 03008KT 24/10 A2993 RMK A01 T02360101  RH  044%=      5-min Rain = 0
KANS 252205Z 03007G12KT 23/10 A2993 RMK A01 T02310099  RH  044%=      5-min Rain = 0
KANS 252210Z 03010G16KT 23/10 A2993 RMK A01 T02260098  RH  046%=      5-min Rain = 0
KANS 252215Z 03009KT 22/10 A2993 RMK A01 T02230097  RH  046%=      5-min Rain = 0
KANS 252220Z 03009KT 22/10 A2994 RMK A01 T02220098  RH  047%=      5-min Rain = 0
KANS 252225Z 04008KT 22/10 A2994 RMK A01 T02210098  RH  047%=      5-min Rain = 0
KANS 252230Z 03006G13KT 22/10 A2994 RMK A01 T02200098  RH  047%=      5-min Rain = 0
KANS 252235Z 02008G13KT 22/10 A2994 RMK A01 T02200099  RH  048%=      5-min Rain = 0
KANS 252240Z 03007KT 22/10 A2994 RMK A01 T02190100  RH  048%=      5-min Rain = 0
KANS 252245Z 04007KT 22/10 A2994 RMK A01 T02190099  RH  048%=      5-min Rain = 0
KANS 252250Z 01008KT 22/10 A2994 RMK A01 T02180098  RH  048%=      5-min Rain = 0
KANS 252255Z 02007KT 22/10 A2994 RMK A01 T02200099  RH  048%=      5-min Rain = 0
KANS 252300Z 02008KT 22/10 A2994 RMK A01 T02210099  RH  047%=      5-min Rain = 0
KANS 252305Z 04007KT 22/10 A2994 RMK A01 T02200100  RH  048%=      5-min Rain = 0
KANS 252310Z 03006G11KT 22/10 A2994 RMK A01 T02200103  RH  049%=      5-min Rain = 0
KANS 252315Z 02006KT 22/11 A2994 RMK A01 T02180107  RH  051%=      5-min Rain = 0
KANS 252320Z 01008G13KT 22/11 A2993 RMK A01 T02150111  RH  053%=      5-min Rain = 0
KANS 252325Z 01008KT 22/11 A2994 RMK A01 T02150110  RH  053%=      5-min Rain = 0
KANS 252330Z 02008KT 22/11 A2994 RMK A01 T02190110  RH  052%=      5-min Rain = 0
KANS 252335Z 01012KT 22/11 A2994 RMK A01 T02190112  RH  052%=      5-min Rain = 0
KANS 252340Z 02009G14KT 22/11 A2994 RMK A01 T02180113  RH  053%=      5-min Rain = 0
KANS 252345Z 03009KT 23/12 A2994 RMK A01 T02260115  RH  051%=      5-min Rain = 0
KANS 252350Z 05012G17KT 22/12 A2994 RMK A01 T02240117  RH  053%=      5-min Rain = 0
KANS 252355Z 06012G17KT 21/13 A2994 RMK A01 T02090125  RH  061%=      5-min Rain = 0
KANS 260000Z 07011G16KT 20/13 A2995 RMK A01 T02020128  RH  065%=      5-min Rain = 0
KANS 260005Z 07010KT 19/13 A2995 RMK A01 T01920126  RH  068%=      5-min Rain = 0
KANS 260010Z 07011KT 19/13 A2995 RMK A01 T01910125  RH  068%=      5-min Rain = 0
KANS 260015Z 06011KT 19/12 A2995 RMK A01 T01920121  RH  066%=      5-min Rain = 0
KANS 260020Z 06008KT 19/12 A2996 RMK A01 T01940119  RH  064%=      5-min Rain = 0
KANS 260025Z 05009KT 20/12 A2996 RMK A01 T01970118  RH  062%=      5-min Rain = 0
KANS 260030Z 06008KT 20/12 A2996 RMK A01 T01980117  RH  062%=      5-min Rain = 0
KANS 260035Z 06008KT 20/12 A2996 RMK A01 T01980118  RH  062%=      5-min Rain = 0
KANS 260040Z 06008KT 20/12 A2996 RMK A01 T01970120  RH  064%=      5-min Rain = 0
KANS 260045Z 06008KT 20/12 A2997 RMK A01 T01960121  RH  064%=      5-min Rain = 0
KANS 260050Z 07008KT 20/12 A2997 RMK A01 T01950123  RH  065%=      5-min Rain = 0
KANS 260055Z 06007KT 20/12 A2997 RMK A01 T01950121  RH  065%=      5-min Rain = 0
KANS 260100Z 06008KT 19/12 A2997 RMK A01 T01930122  RH  066%=      5-min Rain = 0
KANS 260105Z 06008KT 19/12 A2997 RMK A01 T01910122  RH  067%=      5-min Rain = 0
KANS 260110Z 05007KT 19/12 A2998 RMK A01 T01900123  RH  067%=      5-min Rain = 0
KANS 260115Z 06006KT 19/12 A2998 RMK A01 T01900123  RH  068%=      5-min Rain = 0
KANS 260120Z 05005KT 19/12 A2998 RMK A01 T01890122  RH  068%=      5-min Rain = 0
KANS 260125Z 05004KT 19/12 A2998 RMK A01 T01880123  RH  069%=      5-min Rain = 0
KANS 260130Z 05004KT 19/12 A2998 RMK A01 T01870124  RH  069%=      5-min Rain = 0
KANS 260135Z 04004KT 19/12 A2998 RMK A01 T01860122  RH  069%=      5-min Rain = 0
KANS 260140Z 02003KT 18/12 A2999 RMK A01 T01840121  RH  069%=      5-min Rain = 0
KANS 260145Z 02003KT 18/12 A2999 RMK A01 T01830120  RH  069%=      5-min Rain = 0
KANS 260150Z 03002KT 18/12 A2999 RMK A01 T01820119  RH  069%=      5-min Rain = 0
KANS 260155Z 04002KT 18/12 A2999 RMK A01 T01810118  RH  069%=      5-min Rain = 0
KANS 260200Z 01003KT 18/12 A2999 RMK A01 T01790117  RH  070%=      5-min Rain = 0
KANS 260205Z 03003KT 18/12 A30 RMK A01 T01770116  RH  070%=      5-min Rain = 0
KANS 260210Z 06003KT 18/12 A30 RMK A01 T01760116  RH  071%=      5-min Rain = 0
KANS 260215Z 07004KT 17/12 A2999 RMK A01 T01730115  RH  071%=      5-min Rain = 0
KANS 260220Z 08004KT 17/12 A2999 RMK A01 T01710115  RH  072%=      5-min Rain = 0
KANS 260225Z 07006KT 17/12 A30 RMK A01 T01710117  RH  073%=      5-min Rain = 0
KANS 260230Z 05006KT 17/12 A30 RMK A01 T01730119  RH  073%=      5-min Rain = 0
KANS 260235Z 04005KT 17/12 A3001 RMK A01 T01720117  RH  073%=      5-min Rain = 0
KANS 260240Z 04004KT 17/12 A3001 RMK A01 T01700116  RH  073%=      5-min Rain = 0
KANS 260245Z 05006KT 17/11 A3002 RMK A01 T01680111  RH  071%=      5-min Rain = 0
KANS 260250Z 05005KT 17/11 A3002 RMK A01 T01680107  RH  070%=      5-min Rain = 0
KANS 260255Z 02005KT 17/11 A3002 RMK A01 T01670106  RH  069%=      5-min Rain = 0
KANS 260300Z 03006KT 17/11 A3003 RMK A01 T01650106  RH  070%=      5-min Rain = 0
KANS 260305Z 03007KT 17/10 A3003 RMK A01 T01660104  RH  069%=      5-min Rain = 0
KANS 260310Z 04007KT 17/10 A3003 RMK A01 T01670101  RH  067%=      5-min Rain = 0
KANS 260315Z 04007KT 17/10 A3003 RMK A01 T01680102  RH  067%=      5-min Rain = 0
KANS 260320Z 05007KT 17/11 A3003 RMK A01 T01680105  RH  068%=      5-min Rain = 0
KANS 260325Z 03006KT 17/11 A3003 RMK A01 T01670109  RH  071%=      5-min Rain = 0
KANS 260330Z 01007KT 16/10 A3004 RMK A01 T01620104  RH  071%=      5-min Rain = 0
KANS 260335Z 01007KT 16/11 A3004 RMK A01 T01580106  RH  073%=      5-min Rain = 0
KANS 260340Z 01006KT 16/10 A3004 RMK A01 T01570103  RH  073%=      5-min Rain = 0
KANS 260345Z 01006KT 16/10 A3004 RMK A01 T01550103  RH  074%=      5-min Rain = 0
KANS 260350Z 02006KT 16/10 A3004 RMK A01 T01550103  RH  074%=      5-min Rain = 0
KANS 260355Z 02006KT 16/10 A3005 RMK A01 T01550103  RH  074%=      5-min Rain = 0
KANS 260400Z 03006KT 16/10 A3005 RMK A01 T01550103  RH  074%=      5-min Rain = 0
KANS 260405Z 03006KT 16/10 A3005 RMK A01 T01570104  RH  073%=      5-min Rain = 0
KANS 260410Z 02005KT 16/10 A3005 RMK A01 T01570104  RH  073%=      5-min Rain = 0
KANS 260415Z 01005KT 16/10 A3006 RMK A01 T01560104  RH  074%=      5-min Rain = 0
KANS 260420Z 00004KT 15/10 A3006 RMK A01 T01530103  RH  075%=      5-min Rain = 0
KANS 260425Z 00004KT 15/10 A3006 RMK A01 T01510103  RH  075%=      5-min Rain = 0
KANS 260430Z 36004KT 15/10 A3006 RMK A01 T01490103  RH  076%=      5-min Rain = 0
KANS 260435Z 00003KT 15/10 A3006 RMK A01 T01480103  RH  077%=      5-min Rain = 0
KANS 260440Z 35004KT 15/10 A3006 RMK A01 T01470102  RH  077%=      5-min Rain = 0
KANS 260445Z 34006KT 15/10 A3006 RMK A01 T01460103  RH  078%=      5-min Rain = 0
KANS 260450Z 35007KT 15/10 A3006 RMK A01 T01450103  RH  078%=      5-min Rain = 0
KANS 260455Z 36007KT 15/10 A3006 RMK A01 T01470102  RH  077%=      5-min Rain = 0

Page generated in 0.0439 seconds.